sensor_id;sensor_type;location;lat;lon;timestamp;pressure;altitude;pressure_sealevel;temperature;humidity
64292;BME280;50628;51.008;13.658;2023-04-07T00:04:26;99981.66;;;2.02;100.00
64292;BME280;50628;51.008;13.658;2023-04-07T00:09:29;99979.97;;;2.21;100.00
64292;BME280;50628;51.008;13.658;2023-04-07T00:14:31;99986.28;;;2.34;100.00
64292;BME280;50628;51.008;13.658;2023-04-07T00:19:33;99982.72;;;1.96;100.00
64292;BME280;50628;51.008;13.658;2023-04-07T00:24:36;99978.53;;;1.73;100.00
64292;BME280;50628;51.008;13.658;2023-04-07T00:29:38;99980.44;;;1.68;100.00
64292;BME280;50628;51.008;13.658;2023-04-07T00:34:40;99984.41;;;1.77;100.00
64292;BME280;50628;51.008;13.658;2023-04-07T00:39:43;99973.09;;;1.81;100.00
64292;BME280;50628;51.008;13.658;2023-04-07T00:44:45;99966.78;;;1.67;100.00
64292;BME280;50628;51.008;13.658;2023-04-07T00:49:47;99972.78;;;1.24;100.00
64292;BME280;50628;51.008;13.658;2023-04-07T00:54:50;99962.53;;;1.24;100.00
64292;BME280;50628;51.008;13.658;2023-04-07T00:59:53;99959.31;;;1.19;100.00
64292;BME280;50628;51.008;13.658;2023-04-07T01:05:04;99956.75;;;1.19;100.00
64292;BME280;50628;51.008;13.658;2023-04-07T01:10:17;99944.63;;;1.22;100.00
64292;BME280;50628;51.008;13.658;2023-04-07T01:15:29;99946.53;;;1.17;100.00
64292;BME280;50628;51.008;13.658;2023-04-07T01:20:35;99940.25;;;1.02;100.00
64292;BME280;50628;51.008;13.658;2023-04-07T01:25:53;99928.94;;;1.08;100.00
64292;BME280;50628;51.008;13.658;2023-04-07T01:31:02;99926.63;;;1.24;100.00
64292;BME280;50628;51.008;13.658;2023-04-07T01:36:07;99926.03;;;1.39;100.00
64292;BME280;50628;51.008;13.658;2023-04-07T01:41:10;99932.63;;;1.23;100.00
64292;BME280;50628;51.008;13.658;2023-04-07T01:46:15;99925.25;;;0.70;100.00
64292;BME280;50628;51.008;13.658;2023-04-07T01:51:19;99925.44;;;0.65;100.00
64292;BME280;50628;51.008;13.658;2023-04-07T01:56:22;99923.88;;;0.61;100.00
64292;BME280;50628;51.008;13.658;2023-04-07T02:01:28;99930.84;;;0.81;100.00
64292;BME280;50628;51.008;13.658;2023-04-07T02:06:34;99925.44;;;0.89;100.00
64292;BME280;50628;51.008;13.658;2023-04-07T02:11:38;99919.44;;;0.66;100.00
64292;BME280;50628;51.008;13.658;2023-04-07T02:16:43;99915.34;;;0.60;100.00
64292;BME280;50628;51.008;13.658;2023-04-07T02:21:47;99906.50;;;0.69;100.00
64292;BME280;50628;51.008;13.658;2023-04-07T02:26:52;99904.50;;;0.54;100.00
64292;BME280;50628;51.008;13.658;2023-04-07T02:31:56;99908.88;;;0.50;100.00
64292;BME280;50628;51.008;13.658;2023-04-07T02:36:58;99902.44;;;0.63;100.00
64292;BME280;50628;51.008;13.658;2023-04-07T02:42:01;99902.66;;;0.57;100.00
64292;BME280;50628;51.008;13.658;2023-04-07T02:47:04;99898.53;;;0.30;100.00
64292;BME280;50628;51.008;13.658;2023-04-07T02:52:06;99893.53;;;0.03;100.00
64292;BME280;50628;51.008;13.658;2023-04-07T02:57:08;99894.34;;;0.04;100.00
64292;BME280;50628;51.008;13.658;2023-04-07T03:02:11;99894.38;;;0.51;100.00
64292;BME280;50628;51.008;13.658;2023-04-07T03:07:13;99895.06;;;0.56;100.00
64292;BME280;50628;51.008;13.658;2023-04-07T03:12:16;99882.91;;;0.37;100.00
64292;BME280;50628;51.008;13.658;2023-04-07T03:17:19;99886.13;;;0.42;100.00
64292;BME280;50628;51.008;13.658;2023-04-07T03:22:21;99878.81;;;0.33;100.00
64292;BME280;50628;51.008;13.658;2023-04-07T03:27:26;99878.63;;;0.38;100.00
64292;BME280;50628;51.008;13.658;2023-04-07T03:32:30;99877.47;;;0.23;100.00
64292;BME280;50628;51.008;13.658;2023-04-07T03:37:32;99883.44;;;-0.02;100.00
64292;BME280;50628;51.008;13.658;2023-04-07T03:42:35;99875.25;;;-0.11;100.00
64292;BME280;50628;51.008;13.658;2023-04-07T03:47:42;99875.34;;;0.11;100.00
64292;BME280;50628;51.008;13.658;2023-04-07T03:52:44;99877.06;;;0.10;100.00
64292;BME280;50628;51.008;13.658;2023-04-07T03:57:56;99883.22;;;0.05;100.00
64292;BME280;50628;51.008;13.658;2023-04-07T04:03:02;99881.63;;;0.26;100.00
64292;BME280;50628;51.008;13.658;2023-04-07T04:08:06;99872.81;;;0.09;100.00
64292;BME280;50628;51.008;13.658;2023-04-07T04:13:12;99869.84;;;-0.04;100.00
64292;BME280;50628;51.008;13.658;2023-04-07T04:18:17;99875.25;;;-0.11;100.00
64292;BME280;50628;51.008;13.658;2023-04-07T04:23:19;99878.16;;;0.03;100.00
64292;BME280;50628;51.008;13.658;2023-04-07T04:28:25;99879.19;;;-0.03;100.00
64292;BME280;50628;51.008;13.658;2023-04-07T04:33:29;99881.31;;;-0.14;100.00
64292;BME280;50628;51.008;13.658;2023-04-07T04:38:33;99881.25;;;-0.12;100.00
64292;BME280;50628;51.008;13.658;2023-04-07T04:43:40;99880.38;;;-0.11;100.00
64292;BME280;50628;51.008;13.658;2023-04-07T04:48:45;99873.16;;;0.00;100.00
64292;BME280;50628;51.008;13.658;2023-04-07T04:53:47;99878.72;;;0.11;100.00
64292;BME280;50628;51.008;13.658;2023-04-07T04:58:50;99886.16;;;-0.06;100.00
64292;BME280;50628;51.008;13.658;2023-04-07T05:04:02;99880.31;;;-0.10;100.00
64292;BME280;50628;51.008;13.658;2023-04-07T05:09:04;99880.41;;;-0.13;100.00
64292;BME280;50628;51.008;13.658;2023-04-07T05:14:14;99881.03;;;-0.31;100.00
64292;BME280;50628;51.008;13.658;2023-04-07T05:19:24;99882.97;;;-0.13;100.00
64292;BME280;50628;51.008;13.658;2023-04-07T05:24:31;99886.72;;;0.02;100.00
64292;BME280;50628;51.008;13.658;2023-04-07T05:29:35;99880.38;;;0.12;100.00
64292;BME280;50628;51.008;13.658;2023-04-07T05:34:40;99885.66;;;0.33;100.00
64292;BME280;50628;51.008;13.658;2023-04-07T05:39:43;99873.44;;;0.39;100.00
64292;BME280;50628;51.008;13.658;2023-04-07T05:44:48;99878.13;;;0.52;100.00
64292;BME280;50628;51.008;13.658;2023-04-07T05:49:52;99873.22;;;0.91;100.00
64292;BME280;50628;51.008;13.658;2023-04-07T05:54:54;99866.94;;;0.76;100.00
64292;BME280;50628;51.008;13.658;2023-04-07T06:00:00;99864.09;;;1.06;100.00
64292;BME280;50628;51.008;13.658;2023-04-07T06:05:06;99868.47;;;1.24;100.00
64292;BME280;50628;51.008;13.658;2023-04-07T06:10:08;99869.63;;;0.95;100.00
64292;BME280;50628;51.008;13.658;2023-04-07T06:15:10;99873.31;;;1.10;100.00
64292;BME280;50628;51.008;13.658;2023-04-07T06:20:14;99869.81;;;1.13;100.00
64292;BME280;50628;51.008;13.658;2023-04-07T06:25:16;99865.84;;;1.26;100.00
64292;BME280;50628;51.008;13.658;2023-04-07T06:30:18;99863.13;;;1.51;100.00
64292;BME280;50628;51.008;13.658;2023-04-07T06:35:22;99861.31;;;1.94;100.00
64292;BME280;50628;51.008;13.658;2023-04-07T06:40:26;99865.78;;;2.09;100.00
64292;BME280;50628;51.008;13.658;2023-04-07T06:45:28;99873.09;;;2.56;100.00
64292;BME280;50628;51.008;13.658;2023-04-07T06:50:31;99856.50;;;2.83;100.00
64292;BME280;50628;51.008;13.658;2023-04-07T06:55:33;99857.00;;;3.08;100.00
64292;BME280;50628;51.008;13.658;2023-04-07T07:00:35;99848.56;;;3.41;100.00
64292;BME280;50628;51.008;13.658;2023-04-07T07:05:38;99843.31;;;3.60;100.00
64292;BME280;50628;51.008;13.658;2023-04-07T07:10:40;99851.19;;;4.07;100.00
64292;BME280;50628;51.008;13.658;2023-04-07T07:15:42;99842.09;;;4.33;100.00
64292;BME280;50628;51.008;13.658;2023-04-07T07:20:45;99849.66;;;4.37;91.90
64292;BME280;50628;51.008;13.658;2023-04-07T07:25:47;99850.66;;;4.66;87.28
64292;BME280;50628;51.008;13.658;2023-04-07T07:30:49;99854.63;;;5.03;87.66
64292;BME280;50628;51.008;13.658;2023-04-07T07:35:52;99855.00;;;5.27;85.92
64292;BME280;50628;51.008;13.658;2023-04-07T07:40:54;99856.16;;;5.37;86.61
64292;BME280;50628;51.008;13.658;2023-04-07T07:45:56;99856.22;;;5.36;84.70
64292;BME280;50628;51.008;13.658;2023-04-07T07:50:59;99863.19;;;5.50;83.29
64292;BME280;50628;51.008;13.658;2023-04-07T07:56:01;99865.78;;;6.09;85.67
64292;BME280;50628;51.008;13.658;2023-04-07T08:01:03;99861.72;;;6.19;78.73
64292;BME280;50628;51.008;13.658;2023-04-07T08:06:06;99868.19;;;6.82;71.88
64292;BME280;50628;51.008;13.658;2023-04-07T08:11:09;99878.88;;;7.44;67.21
64292;BME280;50628;51.008;13.658;2023-04-07T08:16:10;99872.63;;;7.07;63.57
64292;BME280;50628;51.008;13.658;2023-04-07T08:21:14;99867.16;;;6.84;62.92
64292;BME280;50628;51.008;13.658;2023-04-07T08:26:16;99873.38;;;7.09;61.55
64292;BME280;50628;51.008;13.658;2023-04-07T08:31:18;99880.00;;;7.13;62.43
64292;BME280;50628;51.008;13.658;2023-04-07T08:36:21;99884.41;;;6.98;61.02
64292;BME280;50628;51.008;13.658;2023-04-07T08:41:28;99880.06;;;7.26;60.75
64292;BME280;50628;51.008;13.658;2023-04-07T08:46:32;99867.50;;;7.72;59.18
64292;BME280;50628;51.008;13.658;2023-04-07T08:51:37;99869.66;;;7.66;59.33
64292;BME280;50628;51.008;13.658;2023-04-07T08:56:40;99866.78;;;7.70;58.92
64292;BME280;50628;51.008;13.658;2023-04-07T09:01:42;99873.81;;;7.81;58.75
64292;BME280;50628;51.008;13.658;2023-04-07T09:06:46;99870.91;;;7.73;58.34
64292;BME280;50628;51.008;13.658;2023-04-07T09:11:48;99864.38;;;8.18;57.68
64292;BME280;50628;51.008;13.658;2023-04-07T09:16:50;99870.72;;;8.27;57.16
64292;BME280;50628;51.008;13.658;2023-04-07T09:21:53;99861.19;;;8.15;57.12
64292;BME280;50628;51.008;13.658;2023-04-07T09:27:09;99864.38;;;8.44;57.52
64292;BME280;50628;51.008;13.658;2023-04-07T09:32:12;99863.56;;;8.80;55.58
64292;BME280;50628;51.008;13.658;2023-04-07T09:37:23;99857.44;;;9.05;55.37
64292;BME280;50628;51.008;13.658;2023-04-07T09:42:26;99839.91;;;8.96;55.39
64292;BME280;50628;51.008;13.658;2023-04-07T09:47:31;99849.56;;;8.94;55.34
64292;BME280;50628;51.008;13.658;2023-04-07T09:52:58;99848.72;;;8.45;54.84
64292;BME280;50628;51.008;13.658;2023-04-07T09:58:01;99846.00;;;8.84;54.97
64292;BME280;50628;51.008;13.658;2023-04-07T10:03:06;99844.28;;;8.96;54.08
64292;BME280;50628;51.008;13.658;2023-04-07T10:08:09;99841.81;;;9.29;52.76
64292;BME280;50628;51.008;13.658;2023-04-07T10:13:11;99841.59;;;8.97;52.96
64292;BME280;50628;51.008;13.658;2023-04-07T10:18:14;99846.16;;;8.70;52.45
64292;BME280;50628;51.008;13.658;2023-04-07T10:23:21;99842.56;;;8.83;51.64
64292;BME280;50628;51.008;13.658;2023-04-07T10:28:27;99845.06;;;9.09;50.98
64292;BME280;50628;51.008;13.658;2023-04-07T10:33:45;99837.72;;;8.79;51.01
64292;BME280;50628;51.008;13.658;2023-04-07T10:39:20;99841.13;;;9.03;50.80
64292;BME280;50628;51.008;13.658;2023-04-07T10:44:46;99837.59;;;8.80;50.86
64292;BME280;50628;51.008;13.658;2023-04-07T10:50:15;99837.22;;;8.98;50.26
64292;BME280;50628;51.008;13.658;2023-04-07T10:55:37;99833.31;;;9.63;49.38
64292;BME280;50628;51.008;13.658;2023-04-07T11:00:39;99837.50;;;9.06;50.02
64292;BME280;50628;51.008;13.658;2023-04-07T11:05:42;99833.75;;;9.10;49.67
64292;BME280;50628;51.008;13.658;2023-04-07T11:10:47;99839.13;;;9.31;49.10
64292;BME280;50628;51.008;13.658;2023-04-07T11:15:49;99826.94;;;9.89;48.45
64292;BME280;50628;51.008;13.658;2023-04-07T11:20:53;99832.94;;;9.56;47.99
64292;BME280;50628;51.008;13.658;2023-04-07T11:26:00;99831.34;;;9.42;48.77
64292;BME280;50628;51.008;13.658;2023-04-07T11:31:03;99837.09;;;9.23;46.46
64292;BME280;50628;51.008;13.658;2023-04-07T11:36:05;99833.50;;;9.48;46.36
64292;BME280;50628;51.008;13.658;2023-04-07T11:41:13;99821.88;;;9.99;47.06
64292;BME280;50628;51.008;13.658;2023-04-07T11:46:16;99825.06;;;10.59;46.30
64292;BME280;50628;51.008;13.658;2023-04-07T11:51:20;99821.97;;;10.20;46.59
64292;BME280;50628;51.008;13.658;2023-04-07T11:56:25;99816.94;;;10.73;44.54
64292;BME280;50628;51.008;13.658;2023-04-07T12:01:38;99824.22;;;10.25;46.21
64292;BME280;50628;51.008;13.658;2023-04-07T12:06:41;99815.03;;;11.40;45.26
64292;BME280;50628;51.008;13.658;2023-04-07T12:11:49;99815.16;;;10.85;45.64
64292;BME280;50628;51.008;13.658;2023-04-07T12:16:51;99814.06;;;10.10;46.93
64292;BME280;50628;51.008;13.658;2023-04-07T12:21:55;99814.84;;;10.67;46.44
64292;BME280;50628;51.008;13.658;2023-04-07T12:26:59;99810.75;;;11.18;45.15
64292;BME280;50628;51.008;13.658;2023-04-07T12:32:02;99812.00;;;10.70;45.41
64292;BME280;50628;51.008;13.658;2023-04-07T12:37:04;99812.13;;;10.69;44.98
64292;BME280;50628;51.008;13.658;2023-04-07T12:42:07;99809.63;;;11.32;45.28
64292;BME280;50628;51.008;13.658;2023-04-07T12:47:11;99800.84;;;11.33;45.11
64292;BME280;50628;51.008;13.658;2023-04-07T12:52:13;99806.56;;;11.89;44.30
64292;BME280;50628;51.008;13.658;2023-04-07T12:57:17;99803.84;;;11.28;45.76
64292;BME280;50628;51.008;13.658;2023-04-07T13:02:19;99811.28;;;11.12;45.89
64292;BME280;50628;51.008;13.658;2023-04-07T13:07:21;99815.50;;;11.13;45.75
64292;BME280;50628;51.008;13.658;2023-04-07T13:12:24;99799.56;;;11.48;45.36
64292;BME280;50628;51.008;13.658;2023-04-07T13:17:27;99817.59;;;10.43;47.19
64292;BME280;50628;51.008;13.658;2023-04-07T13:22:29;99816.69;;;10.33;46.61
64292;BME280;50628;51.008;13.658;2023-04-07T13:27:32;99816.31;;;10.37;49.79
64292;BME280;50628;51.008;13.658;2023-04-07T13:32:34;99818.56;;;10.53;50.18
64292;BME280;50628;51.008;13.658;2023-04-07T13:37:36;99814.75;;;10.57;51.15
64292;BME280;50628;51.008;13.658;2023-04-07T13:42:39;99801.19;;;10.86;50.61
64292;BME280;50628;51.008;13.658;2023-04-07T13:47:41;99786.78;;;11.87;48.56
64292;BME280;50628;51.008;13.658;2023-04-07T13:52:43;99787.19;;;12.23;48.29
64292;BME280;50628;51.008;13.658;2023-04-07T13:57:46;99776.38;;;11.97;48.21
64292;BME280;50628;51.008;13.658;2023-04-07T14:02:48;99781.59;;;11.45;48.15
64292;BME280;50628;51.008;13.658;2023-04-07T14:07:50;99797.81;;;10.95;48.95
64292;BME280;50628;51.008;13.658;2023-04-07T14:12:53;99782.50;;;11.34;47.83
64292;BME280;50628;51.008;13.658;2023-04-07T14:17:55;99775.84;;;11.72;48.22
64292;BME280;50628;51.008;13.658;2023-04-07T14:22:57;99782.03;;;11.08;48.68
64292;BME280;50628;51.008;13.658;2023-04-07T14:28:00;99784.22;;;10.59;49.48
64292;BME280;50628;51.008;13.658;2023-04-07T14:33:03;99776.69;;;10.89;48.97
64292;BME280;50628;51.008;13.658;2023-04-07T14:38:05;99778.53;;;10.66;49.84
64292;BME280;50628;51.008;13.658;2023-04-07T14:43:08;99785.41;;;10.67;49.68
64292;BME280;50628;51.008;13.658;2023-04-07T14:48:10;99776.19;;;11.37;48.68
64292;BME280;50628;51.008;13.658;2023-04-07T14:53:13;99785.34;;;11.10;49.59
64292;BME280;50628;51.008;13.658;2023-04-07T14:58:16;99788.19;;;10.86;50.59
64292;BME280;50628;51.008;13.658;2023-04-07T15:03:18;99783.03;;;10.64;51.12
64292;BME280;50628;51.008;13.658;2023-04-07T15:08:20;99800.59;;;10.39;52.91
64292;BME280;50628;51.008;13.658;2023-04-07T15:13:24;99791.00;;;10.17;52.33
64292;BME280;50628;51.008;13.658;2023-04-07T15:18:25;99793.75;;;10.15;52.40
64292;BME280;50628;51.008;13.658;2023-04-07T15:23:27;99792.19;;;10.35;53.15
64292;BME280;50628;51.008;13.658;2023-04-07T15:28:31;99793.25;;;10.22;53.20
64292;BME280;50628;51.008;13.658;2023-04-07T15:33:33;99796.56;;;10.46;52.28
64292;BME280;50628;51.008;13.658;2023-04-07T15:38:35;99785.94;;;10.81;51.82
64292;BME280;50628;51.008;13.658;2023-04-07T15:43:39;99793.25;;;10.22;53.16
64292;BME280;50628;51.008;13.658;2023-04-07T15:48:41;99794.22;;;9.75;54.60
64292;BME280;50628;51.008;13.658;2023-04-07T15:53:43;99796.59;;;9.32;55.01
64292;BME280;50628;51.008;13.658;2023-04-07T15:58:46;99795.97;;;9.52;55.66
64292;BME280;50628;51.008;13.658;2023-04-07T16:03:48;99795.31;;;9.26;55.83
64292;BME280;50628;51.008;13.658;2023-04-07T16:08:50;99804.47;;;9.08;56.23
64292;BME280;50628;51.008;13.658;2023-04-07T16:13:53;99807.28;;;9.05;56.25
64292;BME280;50628;51.008;13.658;2023-04-07T16:18:55;99817.06;;;8.77;58.06
64292;BME280;50628;51.008;13.658;2023-04-07T16:23:57;99818.22;;;8.73;59.20
64292;BME280;50628;51.008;13.658;2023-04-07T16:29:00;99833.38;;;8.42;61.20
64292;BME280;50628;51.008;13.658;2023-04-07T16:34:02;99834.06;;;8.57;61.99
64292;BME280;50628;51.008;13.658;2023-04-07T16:39:04;99836.78;;;8.30;63.55
64292;BME280;50628;51.008;13.658;2023-04-07T16:44:07;99840.75;;;8.23;64.74
64292;BME280;50628;51.008;13.658;2023-04-07T16:49:09;99848.50;;;8.23;65.30
64292;BME280;50628;51.008;13.658;2023-04-07T16:54:11;99861.81;;;7.93;68.46
64292;BME280;50628;51.008;13.658;2023-04-07T16:59:14;99860.78;;;7.95;69.05
64292;BME280;50628;51.008;13.658;2023-04-07T17:04:16;99864.91;;;8.11;69.66
64292;BME280;50628;51.008;13.658;2023-04-07T17:09:18;99871.25;;;7.94;69.40
64292;BME280;50628;51.008;13.658;2023-04-07T17:14:22;99874.16;;;7.89;70.42
64292;BME280;50628;51.008;13.658;2023-04-07T17:19:24;99879.41;;;7.75;71.71
64292;BME280;50628;51.008;13.658;2023-04-07T17:24:26;99895.56;;;7.66;73.50
64292;BME280;50628;51.008;13.658;2023-04-07T17:29:29;99899.66;;;7.43;74.31
64292;BME280;50628;51.008;13.658;2023-04-07T17:34:31;99901.19;;;7.32;75.12
64292;BME280;50628;51.008;13.658;2023-04-07T17:39:33;99911.78;;;7.42;75.60
64292;BME280;50628;51.008;13.658;2023-04-07T17:44:36;99921.88;;;6.78;79.55
64292;BME280;50628;51.008;13.658;2023-04-07T17:49:38;99932.50;;;6.88;82.43
64292;BME280;50628;51.008;13.658;2023-04-07T17:54:40;99931.56;;;6.89;86.29
64292;BME280;50628;51.008;13.658;2023-04-07T17:59:45;99948.03;;;6.88;88.10
64292;BME280;50628;51.008;13.658;2023-04-07T18:04:47;99948.19;;;6.85;90.30
64292;BME280;50628;51.008;13.658;2023-04-07T18:09:49;99947.91;;;7.04;91.36
64292;BME280;50628;51.008;13.658;2023-04-07T18:14:53;99947.13;;;6.60;97.37
64292;BME280;50628;51.008;13.658;2023-04-07T18:19:54;99965.88;;;6.64;100.00
64292;BME280;50628;51.008;13.658;2023-04-07T18:24:57;99974.16;;;6.55;100.00
64292;BME280;50628;51.008;13.658;2023-04-07T18:30:01;99981.56;;;6.61;100.00
64292;BME280;50628;51.008;13.658;2023-04-07T18:35:03;99974.56;;;6.63;100.00
64292;BME280;50628;51.008;13.658;2023-04-07T18:40:06;99981.19;;;6.53;100.00
64292;BME280;50628;51.008;13.658;2023-04-07T18:45:10;99988.31;;;6.63;100.00
64292;BME280;50628;51.008;13.658;2023-04-07T18:50:12;99991.72;;;6.64;100.00
64292;BME280;50628;51.008;13.658;2023-04-07T18:55:13;99989.22;;;6.62;100.00
64292;BME280;50628;51.008;13.658;2023-04-07T19:00:17;99994.50;;;6.46;100.00
64292;BME280;50628;51.008;13.658;2023-04-07T19:05:19;99988.41;;;6.33;100.00
64292;BME280;50628;51.008;13.658;2023-04-07T19:10:21;100000.53;;;6.02;100.00
64292;BME280;50628;51.008;13.658;2023-04-07T19:15:24;100003.06;;;5.72;100.00
64292;BME280;50628;51.008;13.658;2023-04-07T19:20:26;100014.44;;;5.84;100.00
64292;BME280;50628;51.008;13.658;2023-04-07T19:25:29;100011.59;;;5.89;100.00
64292;BME280;50628;51.008;13.658;2023-04-07T19:30:33;100018.66;;;5.55;100.00
64292;BME280;50628;51.008;13.658;2023-04-07T19:35:35;100030.22;;;5.63;100.00
64292;BME280;50628;51.008;13.658;2023-04-07T19:40:38;100040.81;;;5.27;100.00
64292;BME280;50628;51.008;13.658;2023-04-07T19:45:41;100038.00;;;4.83;100.00
64292;BME280;50628;51.008;13.658;2023-04-07T19:50:46;100035.31;;;5.02;100.00
64292;BME280;50628;51.008;13.658;2023-04-07T19:55:49;100034.03;;;4.93;100.00
64292;BME280;50628;51.008;13.658;2023-04-07T20:00:52;100040.41;;;4.86;100.00
64292;BME280;50628;51.008;13.658;2023-04-07T20:05:54;100043.63;;;4.73;100.00
64292;BME280;50628;51.008;13.658;2023-04-07T20:10:56;100049.75;;;4.88;100.00
64292;BME280;50628;51.008;13.658;2023-04-07T20:15:59;100044.94;;;5.14;100.00
64292;BME280;50628;51.008;13.658;2023-04-07T20:21:03;100046.47;;;5.02;100.00
64292;BME280;50628;51.008;13.658;2023-04-07T20:26:05;100043.13;;;5.16;100.00
64292;BME280;50628;51.008;13.658;2023-04-07T20:31:09;100044.94;;;4.98;100.00
64292;BME280;50628;51.008;13.658;2023-04-07T20:36:11;100043.72;;;5.05;100.00
64292;BME280;50628;51.008;13.658;2023-04-07T20:41:14;100043.28;;;5.13;100.00
64292;BME280;50628;51.008;13.658;2023-04-07T20:46:17;100041.19;;;5.04;100.00
64292;BME280;50628;51.008;13.658;2023-04-07T20:51:19;100040.19;;;5.06;100.00
64292;BME280;50628;51.008;13.658;2023-04-07T20:56:21;100036.66;;;4.75;100.00
64292;BME280;50628;51.008;13.658;2023-04-07T21:01:25;100041.53;;;4.64;100.00
64292;BME280;50628;51.008;13.658;2023-04-07T21:06:26;100044.19;;;4.96;100.00
64292;BME280;50628;51.008;13.658;2023-04-07T21:11:28;100036.38;;;4.97;100.00
64292;BME280;50628;51.008;13.658;2023-04-07T21:16:32;100038.03;;;4.98;100.00
64292;BME280;50628;51.008;13.658;2023-04-07T21:21:34;100035.72;;;4.94;100.00
64292;BME280;50628;51.008;13.658;2023-04-07T21:26:35;100031.47;;;4.60;100.00
64292;BME280;50628;51.008;13.658;2023-04-07T21:31:39;100033.78;;;4.82;100.00
64292;BME280;50628;51.008;13.658;2023-04-07T21:36:41;100039.19;;;4.60;100.00
64292;BME280;50628;51.008;13.658;2023-04-07T21:41:43;100041.38;;;4.67;100.00
64292;BME280;50628;51.008;13.658;2023-04-07T21:46:46;100036.81;;;4.39;100.00
64292;BME280;50628;51.008;13.658;2023-04-07T21:51:49;100047.53;;;4.47;100.00
64292;BME280;50628;51.008;13.658;2023-04-07T21:56:50;100044.38;;;4.42;100.00
64292;BME280;50628;51.008;13.658;2023-04-07T22:01:54;100039.97;;;4.62;100.00
64292;BME280;50628;51.008;13.658;2023-04-07T22:06:56;100042.84;;;4.55;100.00
64292;BME280;50628;51.008;13.658;2023-04-07T22:11:58;100044.91;;;4.49;100.00
64292;BME280;50628;51.008;13.658;2023-04-07T22:22:10;100042.53;;;4.62;100.00
64292;BME280;50628;51.008;13.658;2023-04-07T22:27:12;100037.38;;;4.62;100.00
64292;BME280;50628;51.008;13.658;2023-04-07T22:32:14;100040.38;;;4.70;100.00
64292;BME280;50628;51.008;13.658;2023-04-07T22:37:17;100045.41;;;4.38;100.00
64292;BME280;50628;51.008;13.658;2023-04-07T22:42:19;100048.63;;;4.26;100.00
64292;BME280;50628;51.008;13.658;2023-04-07T22:47:20;100050.13;;;4.30;100.00
64292;BME280;50628;51.008;13.658;2023-04-07T22:52:24;100056.66;;;4.37;100.00
64292;BME280;50628;51.008;13.658;2023-04-07T22:57:26;100054.69;;;4.42;100.00
64292;BME280;50628;51.008;13.658;2023-04-07T23:02:27;100049.00;;;4.36;100.00
64292;BME280;50628;51.008;13.658;2023-04-07T23:07:31;100063.94;;;4.29;100.00
64292;BME280;50628;51.008;13.658;2023-04-07T23:12:32;100061.03;;;4.18;100.00
64292;BME280;50628;51.008;13.658;2023-04-07T23:17:35;100059.28;;;4.18;100.00
64292;BME280;50628;51.008;13.658;2023-04-07T23:22:38;100056.22;;;4.29;100.00
64292;BME280;50628;51.008;13.658;2023-04-07T23:27:40;100052.69;;;4.47;100.00
64292;BME280;50628;51.008;13.658;2023-04-07T23:32:42;100060.88;;;4.38;100.00
64292;BME280;50628;51.008;13.658;2023-04-07T23:37:45;100049.28;;;4.47;100.00
64292;BME280;50628;51.008;13.658;2023-04-07T23:42:47;100048.38;;;4.48;100.00
64292;BME280;50628;51.008;13.658;2023-04-07T23:47:49;100044.75;;;4.34;100.00
64292;BME280;50628;51.008;13.658;2023-04-07T23:52:53;100053.16;;;4.38;100.00
64292;BME280;50628;51.008;13.658;2023-04-07T23:57:54;100051.84;;;4.64;100.00
